createdAt,value
2022-09-17T00:00:49.741Z,98883.16
2022-09-17T00:03:16.657Z,98887.16
2022-09-17T00:05:43.758Z,98889.56
2022-09-17T00:08:14.659Z,98886.59
2022-09-17T00:10:44.095Z,98890.34
2022-09-17T00:13:11.059Z,98894.31
2022-09-17T00:15:45.622Z,98887.25
2022-09-17T00:18:13.836Z,98895.97
2022-09-17T00:20:45.206Z,98882.97
2022-09-17T00:23:12.703Z,98890.50
2022-09-17T00:25:44.399Z,98895.97
2022-09-17T00:28:12.331Z,98901.44
2022-09-17T00:30:43.254Z,98893.66
2022-09-17T00:33:12.837Z,98891.63
2022-09-17T00:35:44.561Z,98892.50
2022-09-17T00:38:11.826Z,98903.78
2022-09-17T00:40:39.202Z,98896.63
2022-09-17T00:43:11.551Z,98897.56
2022-09-17T00:45:40.085Z,98901.91
2022-09-17T00:48:06.883Z,98903.47
2022-09-17T00:50:37.821Z,98906.34
2022-09-17T00:53:21.615Z,98893.06
2022-09-17T00:56:09.307Z,98895.75
2022-09-17T00:58:40.980Z,98886.66
2022-09-17T01:01:08.018Z,98887.75
2022-09-17T01:03:34.568Z,98888.59
2022-09-17T01:06:17.369Z,98882.09
2022-09-17T01:09:01.004Z,98887.94
2022-09-17T01:11:59.846Z,98887.69
2022-09-17T01:14:45.145Z,98887.31
2022-09-17T01:17:29.757Z,98890.19
2022-09-17T01:20:36.971Z,98896.59
2022-09-17T01:23:15.464Z,98889.63
2022-09-17T01:26:14.604Z,98891.28
2022-09-17T01:28:47.152Z,98887.31
2022-09-17T01:31:20.818Z,98888.41
2022-09-17T01:34:05.593Z,98897.53
2022-09-17T01:37:11.271Z,98890.09
2022-09-17T01:39:44.747Z,98888.88
2022-09-17T01:42:44.290Z,98890.66
2022-09-17T01:45:16.803Z,98900.41
2022-09-17T01:47:59.005Z,98904.59
2022-09-17T01:50:38.009Z,98904.41
2022-09-17T01:53:06.760Z,98904.50
2022-09-17T01:55:37.892Z,98908.13
2022-09-17T01:58:10.471Z,98908.56
2022-09-17T02:00:42.474Z,98913.13
2022-09-17T02:03:15.404Z,98909.31
2022-09-17T02:06:03.516Z,98903.19
2022-09-17T02:08:37.164Z,98901.94
2022-09-17T02:11:09.580Z,98901.13
2022-09-17T02:13:56.551Z,98903.25
2022-09-17T02:16:28.914Z,98901.50
2022-09-17T02:19:16.799Z,98909.66
2022-09-17T02:21:53.430Z,98901.56
2022-09-17T02:24:25.696Z,98899.06
2022-09-17T02:27:02.175Z,98896.97
2022-09-17T02:29:36.179Z,98901.94
2022-09-17T02:32:03.586Z,98901.06
2022-09-17T02:34:31.658Z,98889.53
2022-09-17T02:36:59.413Z,98887.84
2022-09-17T02:39:27.078Z,98887.56
2022-09-17T02:42:24.192Z,98898.16
2022-09-17T02:45:12.422Z,98888.97
2022-09-17T02:48:22.161Z,98892.31
2022-09-17T02:51:08.317Z,98891.56
2022-09-17T02:53:37.771Z,98886.94
2022-09-17T02:56:18.055Z,98888.59
2022-09-17T02:58:54.880Z,98891.09
2022-09-17T03:01:32.694Z,98885.72
2022-09-17T03:04:00.157Z,98891.94
2022-09-17T03:06:27.451Z,98885.72
2022-09-17T03:08:53.975Z,98876.59
2022-09-17T03:11:21.610Z,98884.41
2022-09-17T03:13:48.679Z,98879.22
2022-09-17T03:16:15.255Z,98877.44
2022-09-17T03:18:41.765Z,98883.59
2022-09-17T03:21:12.644Z,98881.44
2022-09-17T03:23:39.885Z,98886.75
2022-09-17T03:26:06.369Z,98890.28
2022-09-17T03:28:32.781Z,98889.44
2022-09-17T03:30:59.681Z,98895.38
2022-09-17T03:33:28.365Z,98902.53
2022-09-17T03:35:54.915Z,98909.13
2022-09-17T03:38:21.758Z,98910.72
2022-09-17T03:41:09.928Z,98903.66
2022-09-17T03:43:36.658Z,98911.84
2022-09-17T03:46:03.631Z,98904.78
2022-09-17T03:48:30.780Z,98903.63
2022-09-17T03:50:57.223Z,98900.91
2022-09-17T03:53:23.982Z,98905.03
2022-09-17T03:55:50.600Z,98909.00
2022-09-17T03:58:17.163Z,98913.78
2022-09-17T04:00:43.741Z,98911.91
2022-09-17T04:03:10.341Z,98915.41
2022-09-17T04:05:37.040Z,98918.75
2022-09-17T04:08:03.447Z,98921.88
2022-09-17T04:10:30.029Z,98912.94
2022-09-17T04:12:56.565Z,98912.09
2022-09-17T04:15:23.358Z,98910.03
2022-09-17T04:17:49.848Z,98915.56
2022-09-17T04:20:16.412Z,98920.19
2022-09-17T04:22:42.843Z,98919.28
2022-09-17T04:25:11.554Z,98918.91
2022-09-17T04:27:38.012Z,98915.56
2022-09-17T04:30:04.863Z,98910.63
2022-09-17T04:32:31.359Z,98901.91
2022-09-17T04:34:57.998Z,98915.38
2022-09-17T04:37:25.663Z,98912.44
2022-09-17T04:39:52.626Z,98908.13
2022-09-17T04:42:19.300Z,98914.66
2022-09-17T04:44:46.980Z,98903.69
2022-09-17T04:47:13.641Z,98907.13
2022-09-17T04:49:40.239Z,98912.88
2022-09-17T04:52:06.892Z,98911.88
2022-09-17T04:54:33.397Z,98909.88
2022-09-17T04:57:00.482Z,98910.84
2022-09-17T04:59:29.167Z,98908.44
2022-09-17T05:01:55.659Z,98906.00
2022-09-17T05:04:22.505Z,98910.53
2022-09-17T05:06:49.607Z,98918.38
2022-09-17T05:09:24.314Z,98916.06
2022-09-17T05:11:50.776Z,98909.84
2022-09-17T05:14:19.216Z,98918.56
2022-09-17T05:16:48.721Z,98918.19
2022-09-17T05:19:15.274Z,98914.00
2022-09-17T05:21:44.893Z,98922.00
2022-09-17T05:24:11.487Z,98921.72
2022-09-17T05:26:37.838Z,98925.53
2022-09-17T05:29:04.972Z,98917.03
2022-09-17T05:31:31.780Z,98926.66
2022-09-17T05:33:58.961Z,98927.66
2022-09-17T05:36:25.557Z,98928.31
2022-09-17T05:38:52.130Z,98920.31
2022-09-17T05:41:18.731Z,98928.59
2022-09-17T05:43:45.281Z,98925.13
2022-09-17T05:46:11.834Z,98920.38
2022-09-17T05:48:45.587Z,98928.59
2022-09-17T05:51:12.586Z,98925.97
2022-09-17T05:53:39.196Z,98928.38
2022-09-17T05:56:05.769Z,98927.00
2022-09-17T05:58:34.388Z,98923.00
2022-09-17T06:01:01.659Z,98921.50
2022-09-17T06:03:29.515Z,98934.22
2022-09-17T06:05:58.501Z,98916.66
2022-09-17T06:08:26.295Z,98917.13
2022-09-17T06:10:52.961Z,98926.97
2022-09-17T06:13:20.524Z,98918.13
2022-09-17T06:15:55.323Z,98924.69
2022-09-17T06:18:21.916Z,98927.84
2022-09-17T06:21:02.739Z,98919.41
2022-09-17T06:23:35.856Z,98926.34
2022-09-17T06:26:03.438Z,98925.13
2022-09-17T06:28:30.486Z,98925.78
2022-09-17T06:31:05.496Z,98924.94
2022-09-17T06:33:32.952Z,98922.16
2022-09-17T06:36:01.115Z,98925.59
2022-09-17T06:38:28.243Z,98917.50
2022-09-17T06:40:54.799Z,98910.94
2022-09-17T06:43:22.017Z,98916.75
2022-09-17T06:46:00.208Z,98922.31
2022-09-17T06:48:29.495Z,98920.03
2022-09-17T06:50:56.607Z,98911.25
2022-09-17T06:53:24.296Z,98922.28
2022-09-17T06:55:51.989Z,98916.94
2022-09-17T06:58:18.779Z,98917.94
2022-09-17T07:00:45.681Z,98912.78
2022-09-17T07:03:12.085Z,98903.50
2022-09-17T07:05:38.722Z,98898.53
2022-09-17T07:08:07.334Z,98897.34
2022-09-17T07:10:33.839Z,98895.47
2022-09-17T07:13:00.480Z,98891.41
2022-09-17T07:15:29.051Z,98890.22
2022-09-17T07:17:55.562Z,98885.41
2022-09-17T07:20:22.174Z,98880.72
2022-09-17T07:22:57.237Z,98878.22
2022-09-17T07:25:25.019Z,98879.69
2022-09-17T07:27:51.673Z,98876.66
2022-09-17T07:30:18.982Z,98884.66
2022-09-17T07:32:45.501Z,98891.41
2022-09-17T07:35:12.694Z,98882.00
2022-09-17T07:37:39.245Z,98882.47
2022-09-17T07:40:07.240Z,98888.47
2022-09-17T07:42:34.154Z,98892.16
2022-09-17T07:45:02.364Z,98901.78
2022-09-17T07:47:29.122Z,98899.91
2022-09-17T07:49:55.702Z,98906.94
2022-09-17T07:52:22.285Z,98910.13
2022-09-17T07:54:48.626Z,98914.97
2022-09-17T07:57:15.122Z,98915.66
2022-09-17T07:59:41.533Z,98922.75
2022-09-17T08:02:14.453Z,98928.81
2022-09-17T08:04:44.122Z,98926.78
2022-09-17T08:07:13.849Z,98927.59
2022-09-17T08:09:40.268Z,98947.78
2022-09-17T08:12:07.016Z,98944.91
2022-09-17T08:14:33.550Z,98951.63
2022-09-17T08:17:01.494Z,98958.72
2022-09-17T08:19:31.132Z,98954.78
2022-09-17T08:22:01.241Z,98955.13
2022-09-17T08:24:27.800Z,98954.50
2022-09-17T08:26:54.258Z,98951.41
2022-09-17T08:29:20.630Z,98961.38
2022-09-17T08:31:47.115Z,98964.22
2022-09-17T08:34:14.706Z,98972.28
2022-09-17T08:36:41.100Z,98972.13
2022-09-17T08:39:08.145Z,98980.56
2022-09-17T08:41:43.894Z,98992.66
2022-09-17T08:44:17.342Z,99003.53
2022-09-17T08:46:50.806Z,99009.53
2022-09-17T08:49:40.114Z,99013.47
2022-09-17T08:52:18.696Z,99030.28
2022-09-17T08:54:53.873Z,99032.25
2022-09-17T08:57:36.991Z,99032.75
2022-09-17T09:00:10.413Z,99030.81
2022-09-17T09:02:40.469Z,99037.56
2022-09-17T09:05:17.120Z,99034.44
2022-09-17T09:07:48.764Z,99038.34
2022-09-17T09:10:41.514Z,99036.22
2022-09-17T09:13:09.336Z,99031.69
2022-09-17T09:15:44.739Z,99033.28
2022-09-17T09:18:25.514Z,99032.34
2022-09-17T09:21:30.098Z,99034.72
2022-09-17T09:23:59.045Z,99030.53
2022-09-17T09:26:40.563Z,99019.16
2022-09-17T09:29:10.054Z,99024.84
2022-09-17T09:31:42.285Z,99045.59
2022-09-17T09:34:09.477Z,99047.94
2022-09-17T09:36:37.589Z,99051.91
2022-09-17T09:39:25.452Z,99036.38
2022-09-17T09:42:19.694Z,99040.72
2022-09-17T09:44:46.108Z,99052.69
2022-09-17T09:47:34.833Z,99065.91
2022-09-17T09:51:04.578Z,99068.94
2022-09-17T09:53:41.805Z,99064.53
2022-09-17T09:56:28.362Z,99061.38
2022-09-17T09:58:54.829Z,99051.66
2022-09-17T10:01:21.437Z,99051.06
2022-09-17T10:03:49.491Z,99040.25
2022-09-17T10:06:17.021Z,99029.88
2022-09-17T10:08:49.583Z,99049.25
2022-09-17T10:11:28.276Z,99049.69
2022-09-17T10:14:16.012Z,99061.22
2022-09-17T10:16:42.423Z,99058.03
2022-09-17T10:19:08.898Z,99071.09
2022-09-17T10:21:40.644Z,99081.56
2022-09-17T10:24:30.227Z,99072.22
2022-09-17T10:27:05.841Z,99076.22
2022-09-17T10:29:34.550Z,99084.84
2022-09-17T10:32:02.673Z,99074.69
2022-09-17T10:34:30.930Z,99056.22
2022-09-17T10:36:57.436Z,99060.13
2022-09-17T10:39:26.949Z,99055.91
2022-09-17T10:42:05.123Z,99044.66
2022-09-17T10:44:55.648Z,99066.09
2022-09-17T10:47:36.670Z,99038.19
2022-09-17T10:50:28.632Z,99050.16
2022-09-17T10:52:57.148Z,99048.06
2022-09-17T10:55:44.263Z,99056.03
2022-09-17T10:58:28.347Z,99048.41
2022-09-17T11:01:17.643Z,99053.06
2022-09-17T11:04:10.299Z,99059.06
2022-09-17T11:06:56.515Z,99066.63
2022-09-17T11:09:38.180Z,99050.44
2022-09-17T11:12:27.944Z,99031.81
2022-09-17T11:15:28.769Z,99025.97
2022-09-17T11:18:34.335Z,99030.75
2022-09-17T11:21:28.754Z,99023.38
2022-09-17T11:24:08.829Z,99024.00
2022-09-17T11:26:45.076Z,99032.75
2022-09-17T11:29:29.670Z,99035.41
2022-09-17T11:32:44.177Z,99028.97
2022-09-17T11:35:21.249Z,99024.41
2022-09-17T11:38:18.436Z,99031.41
2022-09-17T11:40:48.271Z,99050.78
2022-09-17T11:43:20.836Z,99083.94
2022-09-17T11:45:55.478Z,99086.06
2022-09-17T11:48:24.863Z,99081.59
2022-09-17T11:51:00.329Z,99085.25
2022-09-17T11:53:47.415Z,99066.84
2022-09-17T11:56:30.961Z,99053.59
2022-09-17T11:59:03.276Z,99040.59
2022-09-17T12:01:39.028Z,99024.97
2022-09-17T12:04:22.741Z,99042.34
2022-09-17T12:06:54.755Z,99036.84
2022-09-17T12:09:25.964Z,99049.09
2022-09-17T12:12:37.886Z,99066.66
2022-09-17T12:15:13.150Z,99072.25
2022-09-17T12:17:43.333Z,99079.00
2022-09-17T12:20:30.195Z,99071.09
2022-09-17T12:22:58.514Z,99066.84
2022-09-17T12:25:26.485Z,99049.78
2022-09-17T12:27:57.108Z,99042.00
2022-09-17T12:30:28.627Z,99028.28
2022-09-17T12:33:13.337Z,99029.66
2022-09-17T12:36:05.924Z,99022.63
2022-09-17T12:38:53.873Z,99026.19
2022-09-17T12:41:40.825Z,99018.91
2022-09-17T12:44:35.777Z,99014.28
2022-09-17T12:47:22.149Z,99017.47
2022-09-17T12:50:26.701Z,99025.97
2022-09-17T12:53:10.086Z,99018.47
2022-09-17T12:55:41.195Z,99024.78
2022-09-17T12:58:16.706Z,99009.88
2022-09-17T13:00:48.416Z,99004.75
2022-09-17T13:03:27.814Z,99010.28
2022-09-17T13:06:04.172Z,99018.47
2022-09-17T13:09:02.660Z,99014.94
2022-09-17T13:11:35.886Z,99011.38
2022-09-17T13:14:27.054Z,99011.19
2022-09-17T13:17:19.382Z,99010.94
2022-09-17T13:20:06.180Z,99030.28
2022-09-17T13:22:34.205Z,99036.50
2022-09-17T13:25:04.958Z,99034.25
2022-09-17T13:27:31.685Z,99040.44
2022-09-17T13:29:58.824Z,99034.31
2022-09-17T13:32:34.703Z,99024.31
2022-09-17T13:35:10.202Z,99013.94
2022-09-17T13:37:39.007Z,99008.19
2022-09-17T13:40:07.444Z,99003.59
2022-09-17T13:42:46.218Z,99017.38
2022-09-17T13:45:17.273Z,99009.09
2022-09-17T13:47:54.102Z,99011.41
2022-09-17T13:50:34.099Z,99006.69
2022-09-17T13:53:16.460Z,99006.41
2022-09-17T13:55:51.244Z,99003.78
2022-09-17T13:58:23.791Z,99002.19
2022-09-17T14:01:00.773Z,98995.22
2022-09-17T14:03:56.530Z,99000.97
2022-09-17T14:06:22.952Z,98993.19
2022-09-17T14:08:51.848Z,98994.94
2022-09-17T14:11:26.712Z,98980.88
2022-09-17T14:14:05.330Z,98987.13
2022-09-17T14:16:37.092Z,98984.81
2022-09-17T14:19:15.860Z,98977.16
2022-09-17T14:21:56.922Z,98970.22
2022-09-17T14:24:33.832Z,98973.75
2022-09-17T14:27:29.925Z,98979.34
2022-09-17T14:30:16.979Z,98972.41
2022-09-17T14:32:54.892Z,98968.63
2022-09-17T14:35:42.843Z,98976.72
2022-09-17T14:38:33.696Z,98977.38
2022-09-17T14:41:04.528Z,98977.97
2022-09-17T14:43:48.438Z,98981.88
2022-09-17T14:46:39.520Z,98974.47
2022-09-17T14:49:41.535Z,98979.75
2022-09-17T14:52:24.940Z,98975.44
2022-09-17T14:55:11.332Z,98978.22
2022-09-17T14:57:38.273Z,98969.34
2022-09-17T15:00:10.919Z,98977.69
2022-09-17T15:02:38.464Z,98981.72
2022-09-17T15:05:30.196Z,98990.31
2022-09-17T15:08:20.620Z,98981.78
2022-09-17T15:11:02.008Z,98973.03
2022-09-17T15:13:30.753Z,98964.50
2022-09-17T15:16:07.729Z,98967.16
2022-09-17T15:18:40.538Z,98966.59
2022-09-17T15:21:35.266Z,98963.84
2022-09-17T15:24:12.710Z,98964.03
2022-09-17T15:26:42.044Z,98962.53
2022-09-17T15:29:13.801Z,98956.88
2022-09-17T15:31:41.185Z,98954.72
2022-09-17T15:34:11.176Z,98956.47
2022-09-17T15:36:37.598Z,98949.97
2022-09-17T15:39:33.125Z,98958.53
2022-09-17T15:41:59.456Z,98965.66
2022-09-17T15:44:31.055Z,98961.69
2022-09-17T15:47:36.763Z,98975.72
2022-09-17T15:50:15.763Z,98977.59
2022-09-17T15:52:42.471Z,98969.06
2022-09-17T15:55:38.295Z,98962.78
2022-09-17T15:58:17.149Z,98961.06
2022-09-17T16:00:43.517Z,98963.56
2022-09-17T16:03:43.453Z,98960.88
2022-09-17T16:06:19.188Z,98964.03
2022-09-17T16:08:47.481Z,98965.28
2022-09-17T16:11:17.180Z,98960.72
2022-09-17T16:13:46.388Z,98965.31
2022-09-17T16:16:18.482Z,98955.09
2022-09-17T16:18:45.030Z,98963.84
2022-09-17T16:21:12.245Z,98960.72
2022-09-17T16:23:38.769Z,98965.69
2022-09-17T16:26:05.771Z,98970.44
2022-09-17T16:28:32.282Z,98969.41
2022-09-17T16:30:59.885Z,98969.34
2022-09-17T16:33:28.140Z,98966.41
2022-09-17T16:35:58.696Z,98964.28
2022-09-17T16:38:26.281Z,98966.75
2022-09-17T16:40:52.715Z,98976.66
2022-09-17T16:43:19.079Z,98980.44
2022-09-17T16:45:58.991Z,98993.38
2022-09-17T16:48:26.619Z,99000.44
2022-09-17T16:50:52.966Z,99014.50
2022-09-17T16:53:19.454Z,99015.50
2022-09-17T16:55:45.850Z,99012.25
2022-09-17T16:58:12.203Z,99014.72
2022-09-17T17:00:42.625Z,99014.69
2022-09-17T17:03:12.941Z,99010.16
2022-09-17T17:05:40.099Z,99019.63
2022-09-17T17:08:07.806Z,99013.03
2022-09-17T17:10:35.009Z,99011.13
2022-09-17T17:13:01.716Z,99013.47
2022-09-17T17:15:28.025Z,99009.22
2022-09-17T17:17:54.353Z,99007.91
2022-09-17T17:20:20.687Z,99000.19
2022-09-17T17:22:47.074Z,99005.13
2022-09-17T17:25:14.597Z,99005.69
2022-09-17T17:27:42.076Z,99010.00
2022-09-17T17:30:09.294Z,99013.31
2022-09-17T17:32:36.768Z,99015.66
2022-09-17T17:35:04.106Z,99017.28
2022-09-17T17:37:30.567Z,99020.72
2022-09-17T17:39:58.137Z,99030.84
2022-09-17T17:42:24.527Z,99029.00
2022-09-17T17:44:50.912Z,99034.25
2022-09-17T17:47:17.284Z,99040.81
2022-09-17T17:49:44.538Z,99044.94
2022-09-17T17:52:10.879Z,99054.22
2022-09-17T17:54:37.184Z,99052.28
2022-09-17T17:57:03.690Z,99056.97
2022-09-17T17:59:30.021Z,99063.41
2022-09-17T18:01:56.523Z,99056.16
2022-09-17T18:04:23.046Z,99061.16
2022-09-17T18:06:49.615Z,99062.19
2022-09-17T18:09:15.963Z,99067.78
2022-09-17T18:11:42.317Z,99062.13
2022-09-17T18:14:12.218Z,99059.88
2022-09-17T18:16:38.901Z,99061.28
2022-09-17T18:19:05.396Z,99062.78
2022-09-17T18:21:31.845Z,99073.66
2022-09-17T18:23:58.244Z,99067.81
2022-09-17T18:26:26.786Z,99065.38
2022-09-17T18:28:53.482Z,99067.16
2022-09-17T18:31:31.703Z,99068.28
2022-09-17T18:34:07.416Z,99066.97
2022-09-17T18:36:35.373Z,99057.09
2022-09-17T18:39:29.980Z,99067.69
2022-09-17T18:41:51.287Z,99067.59
2022-09-17T18:44:20.622Z,99068.25
2022-09-17T18:46:48.114Z,99064.94
2022-09-17T18:49:14.614Z,99075.63
2022-09-17T18:51:41.227Z,99073.84
2022-09-17T18:54:09.982Z,99077.72
2022-09-17T18:56:37.225Z,99079.47
2022-09-17T18:59:07.950Z,99080.22
2022-09-17T19:01:35.413Z,99086.50
2022-09-17T19:04:02.830Z,99083.94
2022-09-17T19:06:30.443Z,99082.91
2022-09-17T19:09:00.206Z,99082.72
2022-09-17T19:11:27.347Z,99085.88
